LSZR METAR and TAF | Updated Today

LSZR METAR

St Gallen Altenrhein Airport

Observation time: 22 min. ago

LSZR 011550Z 28012KT 9999 BKN036 06/M01 Q1025 RMK K

Need help? Read our tutorial on how to read METARs or read the parsed version below.

St Gallen Altenrhein Airport (LSZR) METAR

  • Weather conditions on Wed, 01 Feb 2023 15:50:00 +0000 (22 min. ago):
  • Present conditions: Dry
  • Clouds: Broken sky at 1097 meters
  • Visibility: Greater than 10 km
  • Wind: 280 degrees at 12 knots
  • Temperature: 6 celsius
  • Dew point: -1 celsius
  • Pressure: 1025 millibars
  • Remarks: K


Useful to know...

LSZR TAF

St Gallen Altenrhein Airport

TAF LSZR 011425Z 0115/0124 26006KT 9999 BKN040 TEMPO 0115/0118 26012G25KT
Observation time: 1:47 hr. ago
Need help? Read our tutorial on how to read TAFs or read the parsed version below.

Parsed version of TAF for St Gallen Altenrhein Airport (LSZR)

  • From 01 February at 15:00 UTC, to day 01 of the month at 24:00 UTC
  • Clouds: Broken sky at 1219 meters
  • Visibility: Greater than 10 km
  • Wind: 260 degrees at 6
  • Expected to arise temporarily, from 01 February at 15:00 UTC, to day 01 of the month at 18:00 UTC
  • Wind: 260 degrees at 12